Time;durP1;ratioP1;P1;durP2;ratioP2;P2;SDS_P1;SDS_P2;PMS_P1;PMS_P2;Temp;Humidity;BMP_temperature;BMP_pressure;BME280_temperature;BME280_humidity;BME280_pressure;Samples;Min_cycle;Max_cycle;Signal;HPM_P1;HPM_P2
2023/12/07 00:02:09;;;;;;;25.40;20.20;;;;;;;-0.13;100.00;97579.84;1222762;75;2921596;-65
2023/12/07 00:04:42;;;;;;;27.70;21.70;;;;;;;-0.24;100.00;97590.75;1221309;75;2914696;-66
2023/12/07 00:07:15;;;;;;;29.85;22.65;;;;;;;-0.35;100.00;97582.06;1223980;75;2928841;-64
2023/12/07 00:09:48;;;;;;;24.70;20.20;;;;;;;-0.27;100.00;97588.88;1224796;75;2921400;-63
2023/12/07 00:12:20;;;;;;;25.90;20.55;;;;;;;-0.24;100.00;97596.91;1224449;75;2928479;-62
2023/12/07 00:14:56;;;;;;;24.95;19.50;;;;;;;-0.11;100.00;97586.34;1223863;75;2918743;-63
2023/12/07 00:17:29;;;;;;;21.50;16.95;;;;;;;-0.15;100.00;97584.88;1223467;75;2927977;-64
2023/12/07 00:20:03;;;;;;;22.75;18.00;;;;;;;-0.13;100.00;97587.91;1224121;75;2922089;-64
2023/12/07 00:22:36;;;;;;;22.00;18.60;;;;;;;-0.33;100.00;97587.81;1224556;75;2944750;-66
2023/12/07 00:25:10;;;;;;;24.10;19.10;;;;;;;-0.39;100.00;97590.16;1224696;75;2913259;-66
2023/12/07 00:27:43;;;;;;;20.15;16.60;;;;;;;-0.05;100.00;97603.56;1223146;75;2919896;-65
2023/12/07 00:30:19;;;;;;;18.20;14.75;;;;;;;0.00;100.00;97594.28;1225165;75;2920608;-65
2023/12/07 00:32:52;;;;;;;15.45;12.80;;;;;;;0.05;100.00;97601.88;1224172;75;2928826;-64
2023/12/07 00:35:28;;;;;;;20.90;17.30;;;;;;;-0.30;100.00;97605.81;1224321;75;2936027;-67
2023/12/07 00:38:01;;;;;;;21.75;18.15;;;;;;;-0.38;100.00;97607.84;1223966;75;2919785;-63
2023/12/07 00:40:36;;;;;;;18.55;15.20;;;;;;;-0.20;100.00;97607.59;1224020;75;2925783;-66
2023/12/07 00:43:09;;;;;;;19.25;14.85;;;;;;;-0.21;100.00;97611.47;1224628;75;2912666;-66
2023/12/07 00:45:45;;;;;;;24.05;18.30;;;;;;;-0.23;100.00;97614.56;1224702;75;2927598;-65
2023/12/07 00:48:18;;;;;;;19.70;15.45;;;;;;;-0.17;100.00;97612.16;1224433;75;2909936;-67
2023/12/07 00:50:51;;;;;;;16.85;13.90;;;;;;;-0.10;100.00;97612.06;1224245;75;2922396;-64
2023/12/07 00:53:24;;;;;;;13.40;10.70;;;;;;;0.13;100.00;97610.63;1223656;75;2915391;-66
2023/12/07 00:55:57;;;;;;;12.80;10.85;;;;;;;-0.15;100.00;97611.78;1224598;75;2917544;-67
2023/12/07 00:58:29;;;;;;;24.75;18.05;;;;;;;-0.61;100.00;97605.03;1224512;75;2915902;-65
2023/12/07 01:01:05;;;;;;;19.85;16.75;;;;;;;-0.47;100.00;97607.56;1223695;75;2922745;-64
2023/12/07 01:03:40;;;;;;;15.75;13.10;;;;;;;-0.08;100.00;97614.38;1223586;75;2921693;-65
2023/12/07 01:06:13;;;;;;;27.85;15.45;;;;;;;-0.55;100.00;97608.81;1224360;75;2919011;-66
2023/12/07 01:08:45;;;;;;;20.70;16.90;;;;;;;-0.65;100.00;97613.13;1223706;75;2918876;-66
2023/12/07 01:11:18;;;;;;;20.10;15.60;;;;;;;-0.63;100.00;97618.13;1224857;75;2921896;-65
2023/12/07 01:13:51;;;;;;;20.00;15.60;;;;;;;-0.55;100.00;97617.66;1224006;75;2927687;-66
2023/12/07 01:16:27;;;;;;;24.60;16.05;;;;;;;-0.73;100.00;97623.22;1223048;75;2921705;-64
2023/12/07 01:19:00;;;;;;;21.30;17.05;;;;;;;-0.61;100.00;97611.19;1225085;75;2915268;-62
2023/12/07 01:21:33;;;;;;;19.50;15.95;;;;;;;-0.65;100.00;97618.50;1224743;75;2919703;-65
2023/12/07 01:24:06;;;;;;;16.25;13.60;;;;;;;-0.44;100.00;97620.94;1224086;75;2921089;-66
2023/12/07 01:26:39;;;;;;;14.80;12.60;;;;;;;-0.29;100.00;97618.88;1224829;75;2914507;-64
2023/12/07 01:29:11;;;;;;;13.15;11.10;;;;;;;-0.36;100.00;97618.19;1224675;75;2912063;-65
2023/12/07 01:31:47;;;;;;;13.60;11.20;;;;;;;-0.35;100.00;97633.16;1224549;75;2942568;-67
2023/12/07 01:34:21;;;;;;;11.30;9.30;;;;;;;-0.17;100.00;97625.63;1224339;75;2914587;-66
2023/12/07 01:36:54;;;;;;;13.50;10.90;;;;;;;-0.38;100.00;97633.97;1223654;75;2919186;-67
2023/12/07 01:39:27;;;;;;;13.55;11.40;;;;;;;-0.43;100.00;97625.19;1224365;75;2918623;-66
2023/12/07 01:42:00;;;;;;;17.85;14.45;;;;;;;-0.63;100.00;97623.50;1225462;75;2920280;-63
2023/12/07 01:44:33;;;;;;;14.10;12.50;;;;;;;-0.60;100.00;97636.13;1224225;75;2917394;-67
2023/12/07 01:47:10;;;;;;;13.45;11.60;;;;;;;-0.47;100.00;97635.22;1224287;75;2917698;-66
2023/12/07 01:49:44;;;;;;;16.55;13.80;;;;;;;-0.49;100.00;97634.09;1223153;75;2922025;-64
2023/12/07 01:52:18;;;;;;;19.35;13.40;;;;;;;-0.80;100.00;97627.91;1224200;75;2911411;-67
2023/12/07 01:54:50;;;;;;;16.95;13.65;;;;;;;-0.56;100.00;97629.56;1224452;75;2923771;-63
2023/12/07 01:57:25;;;;;;;13.95;12.25;;;;;;;-0.56;100.00;97626.09;1223268;75;2920650;-65
2023/12/07 01:59:58;;;;;;;16.50;13.80;;;;;;;-0.59;100.00;97624.22;1223886;75;2911196;-66
2023/12/07 02:02:34;;;;;;;12.55;11.00;;;;;;;-0.49;100.00;97632.16;1223556;75;2923116;-63
2023/12/07 02:05:08;;;;;;;18.00;13.05;;;;;;;-0.89;100.00;97623.78;1224541;75;2912721;-64
2023/12/07 02:07:40;;;;;;;14.85;12.65;;;;;;;-0.69;100.00;97644.69;1223498;75;2918204;-64
2023/12/07 02:10:15;;;;;;;19.45;15.65;;;;;;;-0.99;100.00;97632.69;1224504;75;2921956;-66
2023/12/07 02:12:48;;;;;;;15.05;12.80;;;;;;;-0.61;100.00;97638.06;1224015;75;2929654;-65
2023/12/07 02:15:21;;;;;;;12.20;10.65;;;;;;;-0.59;100.00;97641.13;1225579;75;2912589;-65
2023/12/07 02:18:06;;;;;;;19.25;14.10;;;;;;;-0.68;100.00;97625.44;1224267;75;2931620;-65
2023/12/07 02:20:47;;;;;;;13.05;11.15;;;;;;;-0.59;100.00;97641.13;1224552;75;2922472;-67
2023/12/07 02:23:23;;;;;;;15.60;12.05;;;;;;;-0.78;100.00;97634.41;1224589;75;2920536;-63
2023/12/07 02:26:28;;;;;;;13.35;11.85;;;;;;;-0.68;100.00;97646.19;1224235;75;2922663;-64
2023/12/07 02:29:04;;;;;;;15.60;13.05;;;;;;;-1.05;100.00;97636.97;1224260;75;2920470;-65
2023/12/07 02:31:36;;;;;;;14.25;12.75;;;;;;;-0.90;100.00;97654.47;1224526;75;2918477;-68
2023/12/07 02:34:09;;;;;;;14.75;13.00;;;;;;;-1.01;100.00;97648.47;1224230;75;2916987;-64
2023/12/07 02:36:46;;;;;;;16.15;13.20;;;;;;;-0.94;100.00;97655.69;1224098;75;2932348;-63
2023/12/07 02:39:20;;;;;;;14.90;11.90;;;;;;;-0.80;100.00;97652.84;1224683;75;2930605;-66
2023/12/07 02:41:53;;;;;;;16.65;12.70;;;;;;;-0.72;100.00;97648.16;1224843;75;2922668;-63
2023/12/07 02:44:29;;;;;;;14.55;12.45;;;;;;;-0.88;100.00;97664.84;1225873;75;2922444;-64
2023/12/07 02:47:03;;;;;;;17.45;14.15;;;;;;;-1.04;100.00;97661.91;1224562;75;2916874;-67
2023/12/07 02:49:36;;;;;;;16.10;13.95;;;;;;;-0.87;100.00;97656.38;1224046;75;2924596;-65
2023/12/07 02:52:09;;;;;;;18.30;15.35;;;;;;;-1.15;100.00;97664.72;1224941;75;2913023;-66
2023/12/07 02:54:42;;;;;;;16.75;14.75;;;;;;;-0.98;100.00;97668.41;1224207;75;2920378;-66
2023/12/07 02:57:15;;;;;;;12.50;10.55;;;;;;;-0.75;100.00;97671.22;1224123;75;2922486;-66
2023/12/07 02:59:51;;;;;;;12.10;10.20;;;;;;;-0.71;100.00;97663.13;1222702;75;2914574;-64
2023/12/07 03:02:23;;;;;;;13.50;11.75;;;;;;;-1.00;100.00;97668.03;1221557;75;2923669;-64
2023/12/07 03:04:57;;;;;;;14.75;13.15;;;;;;;-0.95;100.00;97676.41;1224300;75;2928667;-64
2023/12/07 03:07:30;;;;;;;16.40;13.10;;;;;;;-1.09;100.00;97682.66;1224309;75;2914694;-65
2023/12/07 03:10:03;;;;;;;15.30;12.80;;;;;;;-0.83;100.00;97675.16;1223598;75;2915712;-61
2023/12/07 03:12:36;;;;;;;15.10;11.80;;;;;;;-1.02;100.00;97689.16;1223990;75;2935664;-64
2023/12/07 03:15:13;;;;;;;17.50;15.05;;;;;;;-0.97;100.00;97688.72;1224387;75;2918753;-63
2023/12/07 03:17:46;;;;;;;15.15;12.95;;;;;;;-0.94;100.00;97694.06;1223813;75;2920337;-61
2023/12/07 03:20:19;;;;;;;14.15;11.75;;;;;;;-0.94;100.00;97683.34;1225121;75;2918594;-65
2023/12/07 03:22:52;;;;;;;15.75;13.75;;;;;;;-0.98;100.00;97687.97;1223907;75;2919641;-63
2023/12/07 03:25:25;;;;;;;13.10;11.75;;;;;;;-0.70;100.00;97689.63;1220242;75;3052186;-64
2023/12/07 03:27:58;;;;;;;14.50;12.65;;;;;;;-0.92;100.00;97685.59;1224298;75;2920851;-61
2023/12/07 03:30:33;;;;;;;14.40;12.60;;;;;;;-0.95;100.00;97687.16;1224367;75;2928289;-68
2023/12/07 03:33:06;;;;;;;12.50;11.15;;;;;;;-0.78;100.00;97695.47;1223968;75;2911899;-67
2023/12/07 03:35:39;;;;;;;12.85;11.00;;;;;;;-0.91;100.00;97692.53;1223827;75;2932461;-63
2023/12/07 03:38:12;;;;;;;20.05;16.05;;;;;;;-1.08;100.00;97681.53;1223931;75;2918731;-69
2023/12/07 03:40:47;;;;;;;21.10;16.00;;;;;;;-1.15;100.00;97710.38;1224210;75;2923924;-65
2023/12/07 03:43:22;;;;;;;20.20;15.55;;;;;;;-1.05;100.00;97698.00;1224796;75;2924090;-64
2023/12/07 03:45:58;;;;;;;18.00;14.55;;;;;;;-0.79;100.00;97697.41;1223235;75;2929912;-63
2023/12/07 03:48:31;;;;;;;17.90;14.60;;;;;;;-1.00;100.00;97708.34;1224984;75;2919674;-63
2023/12/07 03:51:04;;;;;;;18.65;15.90;;;;;;;-1.03;100.00;97696.44;1223249;75;2927452;-65
2023/12/07 03:53:37;;;;;;;16.55;13.80;;;;;;;-0.91;100.00;97712.09;1223947;75;2918353;-65
2023/12/07 03:56:11;;;;;;;16.90;14.30;;;;;;;-0.84;100.00;97708.56;1224587;75;2917859;-64
2023/12/07 03:58:44;;;;;;;13.50;11.20;;;;;;;-0.77;100.00;97713.88;1224620;75;2915262;-65
2023/12/07 04:01:19;;;;;;;12.80;10.50;;;;;;;-0.72;100.00;97721.53;1224938;75;2918194;-66
2023/12/07 04:03:52;;;;;;;16.50;13.40;;;;;;;-0.95;100.00;97732.84;1221183;75;2916369;-65
2023/12/07 04:06:26;;;;;;;17.05;14.80;;;;;;;-1.08;100.00;97727.19;1223489;75;2918942;-64
2023/12/07 04:08:59;;;;;;;16.60;14.45;;;;;;;-0.94;100.00;97729.00;1223631;75;2938118;-67
2023/12/07 04:11:32;;;;;;;13.85;11.70;;;;;;;-0.80;100.00;97733.47;1224327;75;2924664;-64
2023/12/07 04:14:05;;;;;;;13.80;11.50;;;;;;;-0.88;100.00;97740.84;1223975;75;2923369;-64
2023/12/07 04:16:40;;;;;;;13.55;10.80;;;;;;;-1.00;100.00;97735.97;1223295;75;2924367;-65
2023/12/07 04:19:13;;;;;;;12.90;11.35;;;;;;;-0.95;100.00;97753.56;1223052;75;2921653;-64
2023/12/07 04:21:46;;;;;;;18.45;15.95;;;;;;;-1.37;100.00;97737.38;1223830;83;2916297;-66
2023/12/07 04:24:19;;;;;;;17.25;14.70;;;;;;;-1.28;100.00;97747.66;1222943;75;2917641;-63
2023/12/07 04:26:52;;;;;;;13.80;12.15;;;;;;;-1.12;100.00;97753.31;1223272;75;2922664;-64
2023/12/07 04:29:24;;;;;;;21.30;15.30;;;;;;;-1.35;100.00;97742.34;1223532;75;2931636;-67
2023/12/07 04:32:00;;;;;;;19.20;15.80;;;;;;;-1.40;100.00;97762.31;1224149;75;2929356;-69
2023/12/07 04:34:33;;;;;;;16.75;14.40;;;;;;;-1.45;100.00;97770.03;1223581;75;2921963;-63
2023/12/07 04:37:06;;;;;;;15.45;13.60;;;;;;;-1.27;100.00;97757.25;1223347;75;2927377;-66
2023/12/07 04:39:39;;;;;;;16.95;12.70;;;;;;;-1.34;100.00;97750.00;1223223;75;2920129;-63
2023/12/07 04:42:12;;;;;;;15.65;12.50;;;;;;;-1.19;100.00;97760.66;1221222;75;2918842;-64
2023/12/07 04:44:45;;;;;;;17.20;14.75;;;;;;;-1.26;100.00;97755.34;1223986;75;2933375;-65
2023/12/07 04:47:21;;;;;;;15.80;12.70;;;;;;;-1.11;100.00;97757.53;1224038;75;2918712;-64
2023/12/07 04:49:54;;;;;;;13.10;11.65;;;;;;;-1.16;100.00;97775.97;1224410;75;2916155;-65
2023/12/07 04:52:27;;;;;;;15.40;13.65;;;;;;;-1.53;100.00;97770.06;1223056;75;2916019;-65
2023/12/07 04:54:59;;;;;;;13.35;11.95;;;;;;;-1.25;100.00;97770.28;1223128;75;2924299;-65
2023/12/07 04:57:32;;;;;;;11.55;10.10;;;;;;;-1.19;100.00;97772.16;1223656;75;2922501;-62
2023/12/07 05:00:06;;;;;;;11.30;10.00;;;;;;;-1.18;100.00;97776.41;1223405;75;2929177;-65
2023/12/07 05:02:42;;;;;;;12.85;11.45;;;;;;;-1.22;100.00;97777.56;1222835;75;2947271;-64
2023/12/07 05:05:15;;;;;;;10.60;9.45;;;;;;;-1.10;100.00;97788.59;1223641;75;2926429;-64
2023/12/07 05:07:48;;;;;;;10.50;8.85;;;;;;;-1.13;100.00;97792.09;1223962;75;2926406;-63
2023/12/07 05:10:21;;;;;;;12.60;10.65;;;;;;;-1.35;100.00;97793.38;1223483;75;2917742;-65
2023/12/07 05:12:53;;;;;;;10.75;9.65;;;;;;;-1.23;100.00;97789.47;1222338;75;2921466;-62
2023/12/07 05:15:27;;;;;;;11.90;9.70;;;;;;;-1.34;100.00;97801.03;1223829;75;2918668;-63
2023/12/07 05:18:03;;;;;;;10.15;8.60;;;;;;;-1.21;100.00;97789.84;1222979;75;2929013;-63
2023/12/07 05:20:38;;;;;;;10.65;9.50;;;;;;;-1.26;100.00;97792.94;1222565;75;2937618;-66
2023/12/07 05:23:12;;;;;;;16.65;13.25;;;;;;;-1.52;100.00;97801.09;1223329;75;2937039;-64
2023/12/07 05:25:44;;;;;;;17.65;14.55;;;;;;;-1.72;100.00;97814.25;1223239;75;2921301;-66
2023/12/07 05:28:17;;;;;;;24.55;20.30;;;;;;;-1.51;100.00;97799.97;1223041;75;2929172;-66
2023/12/07 05:30:50;;;;;;;19.40;16.70;;;;;;;-1.50;100.00;97827.56;1221901;75;3065412;-64
2023/12/07 05:33:26;;;;;;;18.55;15.20;;;;;;;-1.30;100.00;97819.81;1223162;75;2930586;-66
2023/12/07 05:35:58;;;;;;;17.20;14.15;;;;;;;-1.38;100.00;97823.69;1223654;75;2956689;-64
2023/12/07 05:38:32;;;;;;;14.65;12.70;;;;;;;-1.44;100.00;97826.03;1221728;75;2928756;-66
2023/12/07 05:41:05;;;;;;;13.25;11.05;;;;;;;-1.47;100.00;97821.41;1224079;75;2919993;-64
2023/12/07 05:43:37;;;;;;;12.35;11.05;;;;;;;-1.53;100.00;97815.69;1224294;75;2904660;-66
2023/12/07 05:46:10;;;;;;;15.90;13.45;;;;;;;-1.52;100.00;97819.91;1224454;75;2930340;-63
2023/12/07 05:48:46;;;;;;;13.60;11.95;;;;;;;-1.54;100.00;97826.81;1223109;75;2927571;-66
2023/12/07 05:51:20;;;;;;;14.90;12.30;;;;;;;-1.42;100.00;97825.63;1223346;75;2921647;-64
2023/12/07 05:53:53;;;;;;;11.60;10.40;;;;;;;-1.35;100.00;97823.69;1222489;75;2927019;-64
2023/12/07 05:56:26;;;;;;;15.65;12.90;;;;;;;-1.55;100.00;97839.47;1223720;75;2918698;-65
2023/12/07 05:58:59;;;;;;;16.00;13.10;;;;;;;-1.53;100.00;97831.06;1222877;75;2924178;-66
2023/12/07 06:01:32;;;;;;;13.10;10.95;;;;;;;-1.23;100.00;97829.75;1223368;75;2919866;-66
2023/12/07 06:04:07;;;;;;;11.45;9.35;;;;;;;-1.18;100.00;97829.31;1222925;75;2924857;-66
2023/12/07 06:06:40;;;;;;;12.70;10.35;;;;;;;-1.35;100.00;97823.69;1223751;75;2933761;-64
2023/12/07 06:09:13;;;;;;;10.50;9.20;;;;;;;-1.22;100.00;97823.22;1223446;75;2919929;-64
2023/12/07 06:11:46;;;;;;;11.75;9.10;;;;;;;-1.35;100.00;97823.69;1223610;75;2923068;-66
2023/12/07 06:14:18;;;;;;;10.25;8.90;;;;;;;-1.16;100.00;97833.16;1224342;75;2918952;-65
2023/12/07 06:16:51;;;;;;;14.75;12.25;;;;;;;-1.40;100.00;97834.81;1223362;75;2920639;-66
2023/12/07 06:19:27;;;;;;;13.75;11.95;;;;;;;-1.37;100.00;97838.63;1223369;75;2926480;-64
2023/12/07 06:22:00;;;;;;;18.35;14.70;;;;;;;-1.39;100.00;97831.00;1224158;75;2920762;-65
2023/12/07 06:24:33;;;;;;;20.15;14.90;;;;;;;-1.34;100.00;97838.63;1223275;75;2930421;-66
2023/12/07 06:27:07;;;;;;;17.80;14.00;;;;;;;-1.39;100.00;97855.16;1223773;75;2919429;-63
2023/12/07 06:29:40;;;;;;;15.30;12.30;;;;;;;-1.26;100.00;97843.97;1222668;75;2922706;-64
2023/12/07 06:32:13;;;;;;;15.85;12.15;;;;;;;-1.21;100.00;97849.69;1219954;75;3016688;-64
2023/12/07 06:34:49;;;;;;;16.95;13.65;;;;;;;-1.20;100.00;97843.16;1222401;75;2900980;-65
2023/12/07 06:37:22;;;;;;;19.40;15.40;;;;;;;-1.33;100.00;97848.19;1223431;75;2920823;-63
2023/12/07 06:39:55;;;;;;;17.95;14.45;;;;;;;-1.20;100.00;97839.69;1220986;75;2926333;-63
2023/12/07 06:42:28;;;;;;;18.70;14.25;;;;;;;-1.17;100.00;97852.38;1222158;75;2925687;-65
2023/12/07 06:45:01;;;;;;;14.70;12.00;;;;;;;-1.19;100.00;97851.97;1222521;75;2932999;-62
2023/12/07 06:47:33;;;;;;;17.05;13.30;;;;;;;-1.39;100.00;97844.41;1222295;75;2928450;-65
2023/12/07 06:50:11;;;;;;;18.35;15.00;;;;;;;-1.58;100.00;97847.56;1220979;75;2922730;-70
2023/12/07 06:52:44;;;;;;;19.30;15.35;;;;;;;-1.62;100.00;97842.19;1222832;75;2941568;-66
2023/12/07 06:55:17;;;;;;;19.85;14.85;;;;;;;-1.68;100.00;97846.44;1223221;75;2951427;-70
2023/12/07 06:57:53;;;;;;;17.30;14.15;;;;;;;-1.42;100.00;97864.00;1222068;75;2931621;-67
2023/12/07 07:00:26;;;;;;;15.15;11.60;;;;;;;-1.44;100.00;97868.19;1222456;75;2939277;-68
2023/12/07 07:02:59;;;;;;;17.60;13.55;;;;;;;-1.44;100.00;97873.56;1223115;75;2930871;-67
2023/12/07 07:05:34;;;;;;;17.80;13.65;;;;;;;-1.57;100.00;97865.94;1214296;75;3014882;-72
2023/12/07 07:08:08;;;;;;;17.05;13.65;;;;;;;-1.60;100.00;97871.34;1214913;75;3056854;-68
2023/12/07 07:10:41;;;;;;;17.25;12.90;;;;;;;-1.75;100.00;97866.03;1219011;75;2989671;-68
2023/12/07 07:13:14;;;;;;;15.20;12.00;;;;;;;-1.51;100.00;97877.81;1220895;75;2929915;-69
2023/12/07 07:15:48;;;;;;;21.20;15.60;;;;;;;-1.52;100.00;97867.47;1221590;75;2922714;-67
2023/12/07 07:18:23;;;;;;;15.70;13.15;;;;;;;-1.29;100.00;97889.25;1221540;75;2927112;-67
2023/12/07 07:20:59;;;;;;;26.30;18.95;;;;;;;-1.77;100.00;97860.28;1219025;75;2927151;-69
2023/12/07 07:23:32;;;;;;;22.70;17.65;;;;;;;-1.29;100.00;97875.06;1223193;75;2931550;-67
2023/12/07 07:26:04;;;;;;;26.15;18.75;;;;;;;-1.32;100.00;97881.97;1221113;75;2921218;-69
2023/12/07 07:28:37;;;;;;;20.75;15.45;;;;;;;-1.10;100.00;97876.50;1222320;75;2929319;-71
2023/12/07 07:31:10;;;;;;;18.20;14.10;;;;;;;-1.03;100.00;97884.53;1218456;75;2948262;-70
2023/12/07 07:33:43;;;;;;;19.50;13.95;;;;;;;-1.01;100.00;97882.22;1223056;75;2929431;-66
2023/12/07 07:36:18;;;;;;;16.65;13.20;;;;;;;-0.76;100.00;97886.66;1220856;75;2917136;-67
2023/12/07 07:38:51;;;;;;;21.50;15.35;;;;;;;-0.54;100.00;97888.03;1221759;75;2929123;-66
2023/12/07 07:41:24;;;;;;;25.30;17.20;;;;;;;-0.78;100.00;97876.31;1220745;75;2925117;-67
2023/12/07 07:43:58;;;;;;;25.20;17.75;;;;;;;0.03;100.00;97891.44;1223495;75;2935679;-64
2023/12/07 07:46:31;;;;;;;23.55;17.05;;;;;;;0.60;100.00;97888.13;1220865;75;2933642;-73
2023/12/07 07:49:03;;;;;;;19.85;15.30;;;;;;;0.93;100.00;97893.88;1221704;75;2932751;-67
2023/12/07 07:51:39;;;;;;;15.95;13.95;;;;;;;1.07;100.00;97888.31;1221704;75;2923274;-68
2023/12/07 07:54:12;;;;;;;14.45;11.70;;;;;;;0.81;100.00;97895.94;1222332;75;2924442;-67
2023/12/07 07:56:46;;;;;;;12.95;10.60;;;;;;;0.72;100.00;97889.53;1219247;75;2934225;-67
2023/12/07 07:59:20;;;;;;;15.05;12.55;;;;;;;0.42;100.00;97889.09;1222351;75;2920853;-69
2023/12/07 08:01:53;;;;;;;14.25;11.70;;;;;;;0.60;100.00;97894.28;1220323;75;2928831;-66
2023/12/07 08:04:26;;;;;;;13.60;11.95;;;;;;;0.63;100.00;97901.56;1222291;75;2974127;-68
2023/12/07 08:07:01;;;;;;;18.60;14.50;;;;;;;0.01;100.00;97902.59;1221128;75;2922286;-67
2023/12/07 08:09:34;;;;;;;19.20;15.15;;;;;;;0.05;100.00;97903.31;1223192;75;2920504;-68
2023/12/07 08:12:08;;;;;;;17.70;13.55;;;;;;;0.66;100.00;97908.06;1222058;75;2920694;-67
2023/12/07 08:14:44;;;;;;;14.60;12.00;;;;;;;0.60;100.00;97905.06;1222606;75;2927341;-66
2023/12/07 08:17:18;;;;;;;13.40;11.70;;;;;;;0.50;100.00;97907.88;1222441;75;2920881;-69
2023/12/07 08:19:51;;;;;;;11.95;9.90;;;;;;;0.68;100.00;97905.75;1222233;75;2925979;-69
2023/12/07 08:22:27;;;;;;;10.55;9.45;;;;;;;0.94;100.00;97904.28;1220366;75;2919736;-67
2023/12/07 08:25:00;;;;;;;20.95;16.70;;;;;;;0.54;100.00;97905.91;1222553;75;2927496;-69
2023/12/07 08:27:33;;;;;;;23.75;17.75;;;;;;;0.29;100.00;97898.88;1220494;75;2943520;-70
2023/12/07 08:30:09;;;;;;;22.45;18.25;;;;;;;0.42;100.00;97902.56;1222943;75;2916488;-70
2023/12/07 08:32:42;;;;;;;20.10;15.55;;;;;;;1.01;100.00;97903.41;1219471;75;2937176;-69
2023/12/07 08:35:15;;;;;;;16.80;13.60;;;;;;;2.22;100.00;97898.06;1219530;75;3026182;-67
2023/12/07 08:37:51;;;;;;;12.70;11.05;;;;;;;2.60;100.00;97911.28;1221980;75;2927978;-64
2023/12/07 08:40:24;;;;;;;12.90;10.50;;;;;;;1.98;100.00;97923.56;1209349;75;3254783;-65
2023/12/07 08:42:58;;;;;;;13.85;11.40;;;;;;;1.48;100.00;97917.00;1222889;75;2935189;-69
2023/12/07 08:45:31;;;;;;;14.10;12.15;;;;;;;1.59;100.00;97922.22;1223291;75;2929027;-68
2023/12/07 08:48:04;;;;;;;16.35;12.95;;;;;;;1.20;100.00;97927.03;1222233;75;2926029;-72
2023/12/07 08:50:37;;;;;;;13.80;11.40;;;;;;;2.25;100.00;97929.66;1223101;75;2929180;-70
2023/12/07 08:53:12;;;;;;;11.00;9.75;;;;;;;2.83;100.00;97923.94;1221699;75;2920122;-68
2023/12/07 08:55:45;;;;;;;12.10;10.20;;;;;;;2.98;100.00;97917.06;1221010;75;2922692;-65
2023/12/07 08:58:18;;;;;;;14.45;11.05;;;;;;;2.92;100.00;97921.44;1221575;75;2931675;-67
2023/12/07 09:00:52;;;;;;;12.85;10.60;;;;;;;3.23;100.00;97923.16;1221624;75;2921960;-69
2023/12/07 09:03:28;;;;;;;14.75;12.55;;;;;;;3.39;100.00;97929.34;1220515;75;2922282;-69
2023/12/07 09:06:01;;;;;;;16.75;13.35;;;;;;;4.37;100.00;97930.50;1222389;75;2921856;-72
2023/12/07 09:08:36;;;;;;;13.30;11.90;;;;;;;5.27;100.00;97931.53;1222024;75;2920575;-65
2023/12/07 09:11:09;;;;;;;20.65;14.55;;;;;;;4.49;100.00;97935.97;1222197;75;2920660;-71
2023/12/07 09:13:42;;;;;;;18.20;14.75;;;;;;;4.97;95.17;97932.75;1221759;75;2925265;-66
2023/12/07 09:16:15;;;;;;;21.25;16.40;;;;;;;3.91;100.00;97933.19;1220758;75;2926120;-68
2023/12/07 09:18:48;;;;;;;20.10;15.00;;;;;;;3.77;99.81;97949.75;1220440;75;2921634;-67
2023/12/07 09:21:21;;;;;;;18.05;14.05;;;;;;;3.03;100.00;97947.50;1222587;75;2926340;-66
2023/12/07 09:23:56;;;;;;;16.65;13.20;;;;;;;2.94;100.00;97945.38;1222098;75;2931609;-70
2023/12/07 09:26:29;;;;;;;19.05;14.00;;;;;;;3.24;100.00;97941.66;1222905;75;2920255;-63
2023/12/07 09:29:02;;;;;;;16.90;13.05;;;;;;;4.15;100.00;97944.59;1220996;75;3015170;-69
2023/12/07 09:31:35;;;;;;;17.10;13.20;;;;;;;4.85;93.49;97943.13;1221687;75;2926753;-65
2023/12/07 09:34:08;;;;;;;15.25;11.95;;;;;;;6.38;82.25;97931.50;1222878;75;2921381;-67
2023/12/07 09:36:41;;;;;;;14.40;11.85;;;;;;;7.29;77.34;97932.59;1222281;75;2925175;-68
2023/12/07 09:39:16;;;;;;;16.95;12.80;;;;;;;7.76;72.42;97925.34;1221293;75;2945942;-71
2023/12/07 09:41:49;;;;;;;15.75;11.95;;;;;;;8.77;69.76;97916.53;1221973;75;2923477;-69
2023/12/07 09:44:22;;;;;;;11.45;9.60;;;;;;;10.11;66.31;97916.16;1223764;75;2919217;-67
2023/12/07 09:46:55;;;;;;;11.25;9.60;;;;;;;10.74;64.48;97918.91;1221657;75;2925309;-69
2023/12/07 09:49:28;;;;;;;10.85;8.60;;;;;;;10.38;62.75;97912.50;1218971;75;2948845;-70
2023/12/07 09:52:02;;;;;;;8.80;7.20;;;;;;;10.39;63.19;97911.28;1220563;75;2927487;-69
2023/12/07 09:54:39;;;;;;;11.85;7.85;;;;;;;11.73;59.87;97906.53;1217113;75;2937950;-67
2023/12/07 09:57:12;;;;;;;9.60;8.30;;;;;;;13.85;55.03;97911.22;1217336;75;2941157;-69
2023/12/07 09:59:45;;;;;;;12.70;9.40;;;;;;;14.61;52.82;97901.53;1219759;75;2922363;-70
2023/12/07 10:02:18;;;;;;;11.05;8.40;;;;;;;16.37;49.84;97895.34;1215966;75;3029381;-69
2023/12/07 10:04:52;;;;;;;13.00;9.15;;;;;;;17.04;46.47;97890.72;1221149;75;2924674;-68
2023/12/07 10:07:37;;;;;;;11.00;8.20;;;;;;;18.44;42.43;97885.81;1220416;75;2925029;-66
2023/12/07 10:10:14;;;;;;;9.60;7.25;;;;;;;19.55;41.96;97876.34;1221588;75;2929924;-67
2023/12/07 10:12:54;;;;;;;8.05;6.05;;;;;;;18.19;39.86;97876.81;1221159;75;2924422;-66
2023/12/07 10:15:28;;;;;;;11.30;7.85;;;;;;;17.21;40.33;97885.06;1219853;75;2951355;-70
2023/12/07 10:18:02;;;;;;;7.70;5.75;;;;;;;18.59;41.70;97881.84;1218884;75;2933819;-72
2023/12/07 10:20:38;;;;;;;7.40;5.05;;;;;;;18.11;41.53;97878.66;1221080;75;2925308;-72
2023/12/07 10:23:13;;;;;;;6.40;5.05;;;;;;;17.52;41.85;97880.28;1219152;75;2923032;-66
2023/12/07 10:25:48;;;;;;;7.55;4.35;;;;;;;14.65;44.34;97876.50;1221656;75;2926822;-66
2023/12/07 10:28:21;;;;;;;5.45;4.15;;;;;;;14.90;42.39;97874.78;1218208;75;2925243;-66
2023/12/07 10:30:55;;;;;;;6.65;3.35;;;;;;;12.96;42.34;97889.25;1221182;75;2925347;-69
2023/12/07 10:33:29;;;;;;;7.20;4.80;;;;;;;14.16;45.27;97875.81;1218842;75;2921750;-70
2023/12/07 10:36:02;;;;;;;7.50;4.00;;;;;;;11.92;43.35;97876.91;1221416;75;2920974;-67
2023/12/07 10:38:36;;;;;;;3.95;2.75;;;;;;;13.21;43.12;97874.72;1219187;75;2925778;-70
2023/12/07 10:41:15;;;;;;;2.65;1.75;;;;;;;12.56;41.50;97879.91;1221361;75;2924312;-68
2023/12/07 10:43:51;;;;;;;2.00;1.40;;;;;;;9.85;44.84;97877.56;1218148;75;2923909;-69
2023/12/07 10:46:26;;;;;;;1.90;1.40;;;;;;;10.64;43.48;97873.66;1221999;75;2939336;-68
2023/12/07 10:49:07;;;;;;;2.45;1.30;;;;;;;9.36;45.83;97874.03;1221064;75;2933496;-70
2023/12/07 10:51:45;;;;;;;2.00;1.40;;;;;;;9.08;45.78;97881.56;1221449;75;2942624;-70
2023/12/07 10:54:25;;;;;;;3.20;1.70;;;;;;;10.48;45.41;97883.06;1217866;75;2929852;-68
2023/12/07 10:57:03;;;;;;;2.60;1.70;;;;;;;10.55;42.93;97873.75;1220022;75;2919732;-68
2023/12/07 10:59:40;;;;;;;2.30;1.70;;;;;;;11.37;43.58;97874.09;1222205;75;2928004;-69
2023/12/07 11:02:16;;;;;;;4.90;2.30;;;;;;;9.33;45.41;97882.38;1220261;75;2927605;-68
2023/12/07 11:04:50;;;;;;;2.30;1.70;;;;;;;9.95;43.60;97878.28;1223129;75;2933583;-69
2023/12/07 11:07:27;;;;;;;1.45;1.20;;;;;;;11.38;41.43;97870.16;1218822;75;2933897;-68
2023/12/07 11:10:08;;;;;;;2.90;1.50;;;;;;;10.57;42.05;97869.31;1221236;75;2924553;-71
2023/12/07 11:12:52;;;;;;;2.00;1.40;;;;;;;10.90;41.16;97867.66;1218906;75;2951415;-71
2023/12/07 11:15:26;;;;;;;2.20;1.20;;;;;;;12.01;40.77;97870.53;1222468;75;2931201;-70
2023/12/07 11:18:00;;;;;;;1.75;1.25;;;;;;;10.78;41.72;97869.44;1219805;75;2930535;-68
2023/12/07 11:20:45;;;;;;;8.45;2.10;;;;;;;10.81;41.44;97871.97;1222310;75;2936191;-73
2023/12/07 11:23:21;;;;;;;10.85;1.80;;;;;;;13.48;40.43;97878.19;1221278;75;2924424;-70
2023/12/07 11:25:56;;;;;;;6.75;1.65;;;;;;;10.94;41.35;97877.16;1222980;75;2933499;-71
2023/12/07 11:28:42;;;;;;;2.55;1.60;;;;;;;11.26;40.51;97880.19;1219977;75;2921168;-68
2023/12/07 11:31:15;;;;;;;4.30;1.60;;;;;;;11.03;41.55;97877.06;1221418;75;2940036;-68